createdAt,value
2022-11-16T00:00:15.413Z,85.25
2022-11-16T00:03:05.444Z,85.61
2022-11-16T00:05:33.934Z,85.74
2022-11-16T00:08:02.408Z,86.21
2022-11-16T00:10:30.802Z,86.11
2022-11-16T00:12:59.184Z,86.31
2022-11-16T00:15:27.972Z,86.35
2022-11-16T00:17:56.288Z,86.61
2022-11-16T00:20:24.703Z,86.38
2022-11-16T00:22:53.513Z,86.22
2022-11-16T00:25:22.413Z,86.70
2022-11-16T00:27:50.988Z,86.67
2022-11-16T00:30:19.343Z,86.13
2022-11-16T00:32:47.728Z,85.73
2022-11-16T00:35:16.408Z,85.69
2022-11-16T00:37:44.807Z,85.45
2022-11-16T00:40:16.049Z,85.40
2022-11-16T00:42:44.612Z,85.51
2022-11-16T00:45:12.917Z,85.44
2022-11-16T00:47:41.267Z,85.20
2022-11-16T00:50:09.962Z,84.95
2022-11-16T00:52:38.544Z,84.92
2022-11-16T00:55:07.823Z,84.96
2022-11-16T00:57:37.160Z,84.77
2022-11-16T01:00:06.746Z,84.29
2022-11-16T01:02:36.062Z,83.87
2022-11-16T01:05:05.653Z,84.12
2022-11-16T01:07:39.424Z,84.33
2022-11-16T01:10:14.007Z,84.21
2022-11-16T01:12:46.867Z,84.25
2022-11-16T01:15:18.007Z,84.00
2022-11-16T01:17:46.512Z,83.78
2022-11-16T01:20:19.135Z,83.88
2022-11-16T01:22:48.059Z,84.22
2022-11-16T01:25:17.009Z,84.22
2022-11-16T01:27:45.970Z,84.15
2022-11-16T01:30:20.665Z,84.23
2022-11-16T01:32:59.148Z,84.46
2022-11-16T01:35:27.583Z,84.48
2022-11-16T01:37:56.063Z,84.88
2022-11-16T01:40:28.207Z,85.09
2022-11-16T01:42:56.588Z,85.09
2022-11-16T01:45:38.805Z,85.03
2022-11-16T01:48:14.131Z,85.24
2022-11-16T01:50:44.158Z,85.46
2022-11-16T01:53:13.880Z,85.63
2022-11-16T01:55:54.628Z,85.72
2022-11-16T01:58:38.797Z,85.91
2022-11-16T02:01:16.174Z,85.90
2022-11-16T02:03:48.193Z,85.99
2022-11-16T02:07:00.609Z,85.77
2022-11-16T02:09:54.186Z,86.12
2022-11-16T02:12:44.426Z,85.99
2022-11-16T02:15:45.235Z,86.07
2022-11-16T02:18:41.275Z,85.82
2022-11-16T02:21:39.669Z,85.85
2022-11-16T02:24:53.103Z,85.59
2022-11-16T02:27:43.292Z,85.14
2022-11-16T02:30:12.510Z,84.59
2022-11-16T02:33:10.036Z,84.00
2022-11-16T02:35:48.315Z,83.65
2022-11-16T02:38:39.141Z,83.75
2022-11-16T02:41:15.201Z,84.21
2022-11-16T02:43:57.304Z,84.53
2022-11-16T02:46:36.033Z,84.96
2022-11-16T02:49:15.782Z,85.22
2022-11-16T02:51:47.265Z,85.30
2022-11-16T02:54:24.733Z,85.43
2022-11-16T02:57:04.584Z,85.62
2022-11-16T02:59:38.437Z,85.80
2022-11-16T03:02:44.549Z,85.69
2022-11-16T03:05:33.307Z,85.55
2022-11-16T03:08:30.751Z,85.42
2022-11-16T03:11:24.816Z,85.43
2022-11-16T03:14:02.288Z,85.01
2022-11-16T03:16:37.475Z,85.02
2022-11-16T03:19:10.953Z,85.73
2022-11-16T03:21:59.729Z,85.71
2022-11-16T03:24:28.619Z,85.88
2022-11-16T03:27:38.456Z,85.89
2022-11-16T03:30:23.828Z,85.38
2022-11-16T03:33:14.433Z,85.33
2022-11-16T03:35:49.378Z,85.38
2022-11-16T03:38:21.035Z,85.46
2022-11-16T03:40:51.545Z,85.28
2022-11-16T03:43:21.109Z,85.29
2022-11-16T03:45:50.522Z,85.36
2022-11-16T03:48:20.160Z,85.69
2022-11-16T03:50:48.967Z,85.64
2022-11-16T03:53:17.939Z,85.75
2022-11-16T03:55:49.833Z,85.20
2022-11-16T03:58:18.915Z,85.18
2022-11-16T04:00:47.927Z,85.61
2022-11-16T04:03:16.798Z,85.62
2022-11-16T04:06:03.864Z,86.06
2022-11-16T04:08:50.993Z,85.96
2022-11-16T04:11:40.819Z,86.22
2022-11-16T04:14:39.798Z,86.16
2022-11-16T04:17:36.962Z,85.94
2022-11-16T04:20:25.080Z,86.08
2022-11-16T04:23:27.585Z,85.74
2022-11-16T04:25:56.762Z,85.57
2022-11-16T04:28:32.324Z,85.99
2022-11-16T04:31:23.326Z,85.97
2022-11-16T04:34:20.537Z,85.89
2022-11-16T04:37:10.280Z,85.95
2022-11-16T04:39:39.132Z,86.33
2022-11-16T04:42:17.392Z,86.32
2022-11-16T04:45:05.741Z,86.13
2022-11-16T04:47:38.533Z,86.01
2022-11-16T04:50:07.416Z,85.98
2022-11-16T04:52:35.699Z,86.04
2022-11-16T04:55:05.309Z,86.11
2022-11-16T04:57:34.568Z,85.69
2022-11-16T05:00:05.846Z,86.17
2022-11-16T05:02:34.876Z,86.01
2022-11-16T05:05:04.192Z,85.63
2022-11-16T05:07:32.650Z,85.68
2022-11-16T05:10:09.188Z,85.49
2022-11-16T05:12:37.975Z,85.70
2022-11-16T05:15:08.097Z,85.52
2022-11-16T05:17:36.545Z,85.42
2022-11-16T05:20:31.989Z,85.44
2022-11-16T05:23:04.497Z,85.51
2022-11-16T05:25:36.944Z,85.36
2022-11-16T05:28:07.991Z,85.18
2022-11-16T05:30:39.423Z,84.90
2022-11-16T05:33:07.840Z,84.87
2022-11-16T05:35:39.107Z,85.07
2022-11-16T05:38:10.361Z,85.15
2022-11-16T05:40:42.377Z,85.00
2022-11-16T05:43:10.828Z,85.02
2022-11-16T05:45:43.473Z,85.13
2022-11-16T05:48:12.721Z,84.97
2022-11-16T05:50:42.946Z,84.65
2022-11-16T05:53:15.886Z,84.49
2022-11-16T05:55:44.356Z,84.12
2022-11-16T05:58:12.949Z,84.32
2022-11-16T06:00:41.402Z,84.19
2022-11-16T06:03:13.161Z,83.88
2022-11-16T06:05:42.379Z,83.93
2022-11-16T06:08:12.063Z,84.10
2022-11-16T06:10:40.426Z,83.75
2022-11-16T06:13:09.722Z,83.46
2022-11-16T06:15:39.144Z,83.05
2022-11-16T06:18:09.026Z,83.05
2022-11-16T06:20:40.378Z,83.04
2022-11-16T06:23:08.845Z,83.38
2022-11-16T06:25:40.006Z,83.47
2022-11-16T06:28:08.599Z,83.54
2022-11-16T06:30:40.349Z,83.51
2022-11-16T06:33:09.236Z,83.39
2022-11-16T06:35:38.380Z,83.32
2022-11-16T06:38:06.864Z,83.68
2022-11-16T06:40:35.635Z,83.44
2022-11-16T06:43:04.286Z,83.45
2022-11-16T06:45:32.984Z,83.41
2022-11-16T06:48:01.990Z,83.51
2022-11-16T06:50:30.377Z,83.27
2022-11-16T06:53:01.098Z,83.06
2022-11-16T06:55:30.097Z,83.04
2022-11-16T06:57:58.582Z,83.64
2022-11-16T07:00:29.803Z,83.24
2022-11-16T07:02:58.448Z,83.94
2022-11-16T07:05:26.964Z,84.19
2022-11-16T07:07:56.352Z,84.10
2022-11-16T07:10:26.319Z,83.77
2022-11-16T07:12:55.272Z,84.04
2022-11-16T07:15:24.729Z,83.32
2022-11-16T07:17:53.350Z,83.61
2022-11-16T07:20:21.850Z,83.70
2022-11-16T07:22:50.280Z,83.33
2022-11-16T07:25:18.679Z,83.53
2022-11-16T07:27:48.332Z,82.55
2022-11-16T07:30:17.509Z,82.04
2022-11-16T07:33:27.063Z,81.58
2022-11-16T07:36:19.515Z,81.21
2022-11-16T07:38:48.483Z,81.41
2022-11-16T07:41:20.631Z,81.16
2022-11-16T07:44:13.352Z,81.39
2022-11-16T07:46:47.867Z,81.47
2022-11-16T07:49:19.069Z,81.97
2022-11-16T07:51:59.827Z,81.85
2022-11-16T07:55:11.690Z,81.44
2022-11-16T07:57:40.151Z,81.73
2022-11-16T08:00:10.127Z,81.83
2022-11-16T08:02:47.669Z,82.41
2022-11-16T08:05:19.724Z,82.35
2022-11-16T08:07:49.782Z,82.23
2022-11-16T08:10:23.876Z,82.20
2022-11-16T08:12:56.061Z,82.21
2022-11-16T08:15:25.304Z,82.28
2022-11-16T08:17:53.958Z,82.18
2022-11-16T08:20:22.618Z,81.92
2022-11-16T08:22:52.812Z,81.67
2022-11-16T08:25:21.736Z,81.15
2022-11-16T08:27:50.533Z,81.43
2022-11-16T08:30:19.730Z,82.10
2022-11-16T08:32:48.148Z,81.75
2022-11-16T08:35:16.769Z,81.37
2022-11-16T08:37:45.502Z,81.36
2022-11-16T08:40:15.404Z,80.99
2022-11-16T08:42:44.288Z,81.46
2022-11-16T08:45:13.362Z,80.91
2022-11-16T08:47:42.382Z,79.98
2022-11-16T08:50:10.901Z,79.49
2022-11-16T08:52:39.446Z,78.63
2022-11-16T08:55:08.812Z,78.33
2022-11-16T08:57:38.560Z,77.83
2022-11-16T09:00:11.423Z,78.32
2022-11-16T09:02:39.810Z,78.66
2022-11-16T09:05:11.975Z,77.80
2022-11-16T09:07:47.190Z,78.03
2022-11-16T09:10:15.805Z,77.70
2022-11-16T09:12:44.206Z,76.85
2022-11-16T09:15:12.556Z,76.26
2022-11-16T09:17:41.084Z,75.56
2022-11-16T09:20:09.771Z,75.51
2022-11-16T09:22:38.181Z,75.17
2022-11-16T09:25:07.805Z,74.63
2022-11-16T09:27:36.530Z,74.61
2022-11-16T09:30:06.025Z,74.10
2022-11-16T09:32:34.864Z,74.08
2022-11-16T09:35:03.387Z,74.24
2022-11-16T09:37:31.793Z,73.80
2022-11-16T09:40:00.286Z,73.86
2022-11-16T09:43:06.620Z,74.52
2022-11-16T09:45:55.603Z,74.30
2022-11-16T09:48:24.547Z,74.74
2022-11-16T09:51:08.492Z,74.45
2022-11-16T09:53:58.777Z,73.98
2022-11-16T09:56:31.444Z,73.60
2022-11-16T09:59:13.584Z,74.03
2022-11-16T10:02:24.538Z,74.13
2022-11-16T10:05:03.321Z,74.37
2022-11-16T10:07:39.248Z,74.16
2022-11-16T10:10:18.275Z,73.89
2022-11-16T10:13:05.544Z,74.42
2022-11-16T10:15:57.576Z,73.60
2022-11-16T10:18:29.128Z,73.61
2022-11-16T10:21:28.434Z,74.01
2022-11-16T10:23:56.816Z,74.57
2022-11-16T10:26:50.143Z,74.00
2022-11-16T10:29:21.578Z,73.33
2022-11-16T10:31:58.914Z,73.62
2022-11-16T10:34:51.641Z,73.05
2022-11-16T10:37:24.064Z,73.04
2022-11-16T10:39:56.409Z,73.33
2022-11-16T10:42:36.710Z,73.31
2022-11-16T10:45:18.049Z,73.80
2022-11-16T10:48:04.491Z,73.66
2022-11-16T10:50:47.888Z,73.19
2022-11-16T10:53:33.541Z,73.82
2022-11-16T10:56:27.695Z,73.91
2022-11-16T10:59:05.325Z,74.04
2022-11-16T11:01:40.125Z,73.60
2022-11-16T11:04:19.163Z,73.31
2022-11-16T11:06:52.053Z,73.61
2022-11-16T11:09:37.129Z,74.05
2022-11-16T11:12:30.786Z,73.90
2022-11-16T11:15:12.406Z,73.42
2022-11-16T11:17:45.344Z,73.47
2022-11-16T11:20:16.958Z,73.62
2022-11-16T11:22:55.885Z,73.93
2022-11-16T11:25:30.204Z,74.25
2022-11-16T11:28:27.775Z,74.62
2022-11-16T11:31:11.365Z,74.48
2022-11-16T11:33:50.487Z,74.72
2022-11-16T11:36:25.546Z,75.00
2022-11-16T11:39:27.043Z,74.89
2022-11-16T11:42:31.631Z,75.02
2022-11-16T11:45:08.741Z,75.14
2022-11-16T11:48:21.288Z,75.41
2022-11-16T11:51:07.631Z,74.97
2022-11-16T11:54:01.159Z,75.05
2022-11-16T11:56:33.772Z,74.51
2022-11-16T11:59:04.590Z,74.66
2022-11-16T12:02:08.425Z,74.81
2022-11-16T12:05:04.429Z,73.88
2022-11-16T12:07:49.549Z,74.05
2022-11-16T12:11:19.814Z,73.69
2022-11-16T12:14:17.090Z,74.06
2022-11-16T12:17:04.405Z,74.14
2022-11-16T12:19:47.800Z,73.90
2022-11-16T12:22:43.653Z,74.34
2022-11-16T12:25:25.225Z,74.59
2022-11-16T12:28:18.213Z,74.35
2022-11-16T12:31:27.477Z,74.51
2022-11-16T12:34:27.136Z,75.39
2022-11-16T12:37:25.281Z,74.63
2022-11-16T12:40:12.388Z,74.77
2022-11-16T12:42:52.868Z,74.37
2022-11-16T12:45:32.007Z,74.29
2022-11-16T12:48:36.200Z,74.90
2022-11-16T12:51:38.862Z,75.67
2022-11-16T12:54:25.201Z,75.91
2022-11-16T12:57:05.903Z,76.09
2022-11-16T13:00:15.521Z,75.79
2022-11-16T13:02:49.942Z,75.73
2022-11-16T13:05:59.515Z,76.47
2022-11-16T13:08:59.194Z,75.93
2022-11-16T13:11:38.228Z,76.01
2022-11-16T13:14:16.888Z,75.97
2022-11-16T13:16:48.813Z,75.52
2022-11-16T13:19:18.322Z,75.67
2022-11-16T13:22:14.907Z,76.13
2022-11-16T13:24:47.889Z,76.80
2022-11-16T13:27:36.476Z,77.34
2022-11-16T13:30:22.689Z,77.18
2022-11-16T13:32:54.186Z,77.19
2022-11-16T13:35:24.188Z,77.08
2022-11-16T13:37:52.747Z,76.79
2022-11-16T13:40:33.793Z,77.10
2022-11-16T13:43:12.359Z,77.05
2022-11-16T13:45:50.073Z,77.01
2022-11-16T13:48:35.509Z,77.36
2022-11-16T13:51:08.905Z,77.31
2022-11-16T13:56:51.676Z,77.43
2022-11-16T13:59:27.890Z,77.79
2022-11-16T14:02:33.637Z,78.16
2022-11-16T14:05:24.508Z,78.30
2022-11-16T14:07:53.181Z,78.31
2022-11-16T14:10:33.601Z,78.66
2022-11-16T14:13:06.760Z,79.56
2022-11-16T14:15:38.905Z,80.50
2022-11-16T14:18:07.482Z,80.92
2022-11-16T14:20:38.754Z,81.08
2022-11-16T14:23:37.370Z,80.95
2022-11-16T14:26:19.221Z,81.34
2022-11-16T14:29:05.184Z,81.12
2022-11-16T14:31:54.346Z,81.06
2022-11-16T14:34:37.117Z,81.77
2022-11-16T14:37:06.293Z,81.48
2022-11-16T14:39:44.593Z,81.60
2022-11-16T14:42:27.461Z,81.81
2022-11-16T14:45:25.156Z,82.03
2022-11-16T14:48:03.101Z,81.42
2022-11-16T14:50:39.615Z,81.66
2022-11-16T14:53:14.880Z,81.50
2022-11-16T14:55:46.397Z,81.61
2022-11-16T14:58:25.720Z,81.57
2022-11-16T15:01:00.180Z,81.99
2022-11-16T15:03:42.785Z,82.09
2022-11-16T15:06:11.545Z,82.20
2022-11-16T15:08:54.432Z,81.95
2022-11-16T15:11:50.376Z,82.12
2022-11-16T15:14:24.802Z,81.77
2022-11-16T15:16:59.141Z,81.65
2022-11-16T15:19:30.729Z,82.33
2022-11-16T15:22:04.488Z,82.41
2022-11-16T15:24:35.227Z,82.20
2022-11-16T15:27:23.754Z,82.41
2022-11-16T15:29:52.493Z,82.44
2022-11-16T15:32:21.500Z,82.44
2022-11-16T15:34:54.921Z,82.78
2022-11-16T15:37:31.455Z,82.65
2022-11-16T15:40:03.446Z,82.76
2022-11-16T15:42:32.010Z,82.90
2022-11-16T15:45:09.420Z,82.62
2022-11-16T15:47:40.438Z,82.46
2022-11-16T15:50:19.532Z,82.27
2022-11-16T15:52:55.180Z,82.26
2022-11-16T15:55:40.176Z,82.19
2022-11-16T15:58:31.812Z,82.25
2022-11-16T16:01:02.404Z,82.32
2022-11-16T16:03:35.329Z,82.26
2022-11-16T16:06:05.899Z,82.38
2022-11-16T16:08:36.919Z,82.30
2022-11-16T16:11:12.394Z,82.43
2022-11-16T16:13:44.410Z,82.48
2022-11-16T16:16:38.333Z,82.18
2022-11-16T16:19:30.347Z,82.12
2022-11-16T16:21:59.757Z,82.04
2022-11-16T16:24:57.692Z,82.19
2022-11-16T16:27:34.671Z,82.32
2022-11-16T16:30:06.561Z,82.30
2022-11-16T16:32:37.943Z,82.48
2022-11-16T16:35:15.452Z,82.63
2022-11-16T16:37:44.262Z,82.65
2022-11-16T16:40:12.771Z,82.78
2022-11-16T16:42:43.052Z,82.87
2022-11-16T16:45:19.560Z,82.93
2022-11-16T16:47:48.067Z,83.09
2022-11-16T16:50:17.344Z,82.97
2022-11-16T16:52:46.374Z,82.65
2022-11-16T16:55:15.239Z,82.78
2022-11-16T16:57:43.744Z,82.91
2022-11-16T17:00:13.014Z,83.10
2022-11-16T17:02:41.547Z,82.88
2022-11-16T17:05:10.102Z,82.69
2022-11-16T17:07:38.615Z,82.57
2022-11-16T17:10:08.465Z,82.62
2022-11-16T17:12:37.015Z,82.66
2022-11-16T17:15:06.117Z,82.46
2022-11-16T17:17:36.805Z,82.86
2022-11-16T17:20:06.376Z,83.00
2022-11-16T17:22:35.881Z,83.43
2022-11-16T17:25:05.835Z,83.62
2022-11-16T17:27:34.552Z,83.80
2022-11-16T17:30:04.300Z,83.84
2022-11-16T17:32:32.636Z,83.92
2022-11-16T17:35:01.112Z,84.22
2022-11-16T17:37:29.704Z,84.11
2022-11-16T17:39:58.273Z,84.02
2022-11-16T17:42:26.895Z,83.92
2022-11-16T17:44:55.500Z,83.86
2022-11-16T17:47:24.082Z,83.51
2022-11-16T17:49:52.551Z,83.56
2022-11-16T17:52:20.925Z,83.64
2022-11-16T17:54:49.421Z,83.62
2022-11-16T17:57:18.304Z,83.45
2022-11-16T17:59:47.944Z,83.39
2022-11-16T18:02:16.406Z,83.54
2022-11-16T18:04:50.719Z,83.35
2022-11-16T18:07:19.664Z,83.28
2022-11-16T18:09:48.029Z,83.07
2022-11-16T18:12:16.356Z,83.35
2022-11-16T18:15:06.489Z,83.00
2022-11-16T18:17:34.912Z,83.04
2022-11-16T18:20:04.992Z,83.05
2022-11-16T18:22:33.419Z,83.06
2022-11-16T18:25:02.211Z,82.95
2022-11-16T18:27:30.592Z,83.36
2022-11-16T18:29:59.302Z,83.19
2022-11-16T18:32:27.749Z,83.14
2022-11-16T18:34:56.354Z,83.07
2022-11-16T18:37:24.731Z,83.03
2022-11-16T18:39:53.301Z,82.90
2022-11-16T18:42:21.796Z,82.73
2022-11-16T18:44:51.592Z,83.20
2022-11-16T18:47:19.986Z,83.38
2022-11-16T18:49:48.431Z,83.31
2022-11-16T18:52:16.844Z,83.60
2022-11-16T18:54:45.193Z,83.55
2022-11-16T18:57:13.602Z,83.60
2022-11-16T18:59:41.939Z,83.64
2022-11-16T19:02:12.716Z,83.58
2022-11-16T19:04:41.911Z,83.57
2022-11-16T19:07:10.300Z,83.63
2022-11-16T19:09:39.370Z,83.75
2022-11-16T19:12:07.967Z,83.84
2022-11-16T19:14:36.539Z,84.19
2022-11-16T19:17:05.633Z,84.43
2022-11-16T19:19:35.031Z,84.69
2022-11-16T19:22:03.616Z,85.28
2022-11-16T19:24:32.295Z,85.55
2022-11-16T19:27:00.900Z,86.08
2022-11-16T19:29:29.644Z,86.17
2022-11-16T19:31:58.065Z,86.17
2022-11-16T19:34:32.011Z,86.37
2022-11-16T19:37:01.787Z,86.07
2022-11-16T19:39:30.163Z,86.06
2022-11-16T19:41:58.519Z,85.86
2022-11-16T19:44:27.167Z,85.75
2022-11-16T19:46:57.128Z,85.98
2022-11-16T19:49:26.568Z,85.88
2022-11-16T19:51:55.026Z,85.72
2022-11-16T19:54:23.396Z,85.12
2022-11-16T19:56:55.012Z,85.70
2022-11-16T19:59:23.764Z,85.78
2022-11-16T20:01:52.090Z,85.57
2022-11-16T20:04:20.488Z,85.62
2022-11-16T20:06:48.931Z,85.76
2022-11-16T20:09:17.308Z,86.01
2022-11-16T20:11:45.718Z,86.08
2022-11-16T20:14:15.149Z,85.50
2022-11-16T20:16:47.100Z,85.35
2022-11-16T20:19:15.980Z,85.46
2022-11-16T20:21:45.116Z,85.46
2022-11-16T20:24:17.950Z,85.49
2022-11-16T20:26:48.917Z,85.41
2022-11-16T20:29:19.325Z,86.06
2022-11-16T20:31:48.064Z,86.11
2022-11-16T20:34:18.743Z,86.06
2022-11-16T20:36:50.705Z,85.89
2022-11-16T20:39:20.933Z,85.79
2022-11-16T20:41:49.673Z,85.82
2022-11-16T20:44:21.292Z,85.81
2022-11-16T20:46:52.285Z,85.09
2022-11-16T20:49:21.177Z,85.19
2022-11-16T20:51:51.213Z,85.30
2022-11-16T20:54:19.708Z,85.33
2022-11-16T20:56:49.908Z,85.37
2022-11-16T20:59:19.174Z,85.70
2022-11-16T21:01:49.093Z,86.32
2022-11-16T21:04:17.711Z,86.12
2022-11-16T21:06:46.565Z,86.26
2022-11-16T21:09:22.785Z,86.06
2022-11-16T21:12:10.104Z,86.37
2022-11-16T21:14:38.434Z,86.20
2022-11-16T21:17:06.851Z,85.92
2022-11-16T21:19:35.339Z,85.93
2022-11-16T21:22:03.801Z,85.78
2022-11-16T21:24:32.411Z,85.77
2022-11-16T21:27:00.847Z,85.75
2022-11-16T21:29:29.364Z,85.89
2022-11-16T21:31:57.975Z,86.07
2022-11-16T21:34:28.022Z,86.24
2022-11-16T21:36:56.657Z,85.89
2022-11-16T21:39:25.621Z,85.75
2022-11-16T21:41:54.005Z,85.61
2022-11-16T21:44:22.313Z,85.70
2022-11-16T21:46:50.676Z,85.59
2022-11-16T21:49:19.128Z,85.80
2022-11-16T21:51:47.443Z,85.82
2022-11-16T21:54:15.781Z,85.98
2022-11-16T21:56:44.118Z,85.95
2022-11-16T21:59:12.420Z,85.50
2022-11-16T22:01:59.488Z,85.57
2022-11-16T22:04:46.477Z,85.08
2022-11-16T22:07:33.837Z,84.65
2022-11-16T22:10:09.029Z,85.18
2022-11-16T22:12:38.145Z,84.79
2022-11-16T22:15:07.708Z,84.74
2022-11-16T22:17:36.038Z,84.87
2022-11-16T22:20:05.152Z,84.93
2022-11-16T22:22:33.444Z,85.14
2022-11-16T22:25:02.167Z,85.42
2022-11-16T22:27:30.581Z,85.55
2022-11-16T22:29:58.951Z,86.60
2022-11-16T22:32:27.273Z,87.44
2022-11-16T22:34:55.606Z,88.20
2022-11-16T22:37:24.134Z,87.68
2022-11-16T22:39:52.465Z,87.05
2022-11-16T22:42:20.843Z,86.03
2022-11-16T22:44:49.222Z,85.45
2022-11-16T22:47:17.584Z,84.06
2022-11-16T22:49:46.073Z,83.58
2022-11-16T22:52:14.752Z,83.93
2022-11-16T22:54:43.145Z,83.65
2022-11-16T22:57:11.570Z,84.75
2022-11-16T22:59:39.987Z,85.21
2022-11-16T23:02:08.729Z,85.61
2022-11-16T23:04:37.522Z,85.57
2022-11-16T23:07:06.285Z,85.92
2022-11-16T23:09:34.835Z,85.35
2022-11-16T23:12:21.779Z,85.10
2022-11-16T23:15:08.777Z,85.12
2022-11-16T23:17:37.239Z,85.30
2022-11-16T23:20:25.366Z,85.53
2022-11-16T23:23:12.604Z,85.78
2022-11-16T23:25:59.517Z,85.73
2022-11-16T23:28:27.972Z,85.51
2022-11-16T23:30:56.355Z,85.83
2022-11-16T23:33:44.046Z,85.92
2022-11-16T23:36:13.663Z,86.05
2022-11-16T23:38:42.111Z,86.27
2022-11-16T23:41:29.073Z,86.41
2022-11-16T23:44:00.579Z,86.67
2022-11-16T23:46:32.726Z,86.17
2022-11-16T23:49:01.115Z,86.34
2022-11-16T23:51:29.602Z,86.56
2022-11-16T23:53:58.064Z,86.22
2022-11-16T23:56:27.788Z,86.37
2022-11-16T23:58:57.500Z,86.40
